TimeCST,TemperatureF,Dew PointF,Humidity,Sea Level PressureIn,VisibilityMPH,Wind Direction,Wind SpeedMPH,Gust SpeedMPH,PrecipitationIn,Events,Conditions,WindDirDegrees,DateUTC
12:15 AM,32.0,19.4,60,30.28,10.0,SW,6.9,-,N/A,,Clear,220,2013-02-03 06:15:00
12:35 AM,32.0,19.4,60,30.28,10.0,SW,5.8,-,N/A,,Clear,220,2013-02-03 06:35:00
12:55 AM,32.0,19.4,60,30.29,10.0,SW,5.8,-,N/A,,Clear,220,2013-02-03 06:55:00
1:15 AM,32.0,19.4,60,30.28,10.0,SSW,5.8,-,N/A,,Clear,200,2013-02-03 07:15:00
1:35 AM,32.0,19.4,60,30.27,10.0,SSW,6.9,-,N/A,,Clear,200,2013-02-03 07:35:00
2:15 AM,28.4,19.4,69,30.26,10.0,SSW,9.2,-,N/A,,Clear,200,2013-02-03 08:15:00
2:35 AM,26.6,19.4,74,30.26,10.0,SSW,10.4,-,N/A,,Clear,210,2013-02-03 08:35:00
3:15 AM,26.6,19.4,74,30.25,10.0,SSW,10.4,-,N/A,,Clear,210,2013-02-03 09:15:00
3:55 AM,28.4,19.4,69,30.24,10.0,SW,3.5,-,N/A,,Clear,220,2013-02-03 09:55:00
4:15 AM,30.2,19.4,64,30.24,10.0,WSW,3.5,-,N/A,,Clear,240,2013-02-03 10:15:00
4:35 AM,30.2,19.4,64,30.24,10.0,SW,5.8,-,N/A,,Clear,230,2013-02-03 10:35:00
4:55 AM,30.2,19.4,64,30.24,10.0,Calm,Calm,-,N/A,,Clear,0,2013-02-03 10:55:00
5:15 AM,23.0,14.0,68,30.23,10.0,NW,4.6,-,N/A,,Clear,320,2013-02-03 11:15:00
5:35 AM,26.6,17.6,69,30.24,10.0,North,5.8,-,N/A,,Clear,360,2013-02-03 11:35:00
6:15 AM,26.6,17.6,69,30.23,10.0,Calm,Calm,-,N/A,,Clear,0,2013-02-03 12:15:00
6:35 AM,24.8,17.6,74,30.23,10.0,SE,3.5,-,N/A,,Clear,130,2013-02-03 12:35:00
6:55 AM,26.6,17.6,69,30.22,10.0,SE,3.5,-,N/A,,Clear,140,2013-02-03 12:55:00
7:15 AM,23.0,17.6,80,30.22,10.0,ESE,4.6,-,N/A,,Clear,120,2013-02-03 13:15:00
7:35 AM,26.6,19.4,74,30.22,10.0,SE,6.9,-,N/A,,Clear,130,2013-02-03 13:35:00
7:55 AM,23.0,17.6,80,30.21,10.0,SE,5.8,-,N/A,,Clear,130,2013-02-03 13:55:00
8:15 AM,26.6,19.4,74,30.21,10.0,SE,6.9,-,N/A,,Clear,140,2013-02-03 14:15:00
8:35 AM,30.2,21.2,69,30.21,10.0,SSE,4.6,-,N/A,,Clear,150,2013-02-03 14:35:00
8:55 AM,33.8,23.0,65,30.20,10.0,SSE,5.8,-,N/A,,Clear,150,2013-02-03 14:55:00
9:15 AM,35.6,24.8,65,30.20,10.0,SSE,5.8,-,N/A,,Clear,150,2013-02-03 15:15:00
9:35 AM,41.0,24.8,53,30.19,10.0,South,9.2,-,N/A,,Clear,190,2013-02-03 15:35:00
9:55 AM,44.6,26.6,49,30.19,10.0,SSW,11.5,16.1,N/A,,Clear,200,2013-02-03 15:55:00
10:15 AM,50.0,24.8,37,30.18,10.0,SSW,15.0,-,N/A,,Clear,210,2013-02-03 16:15:00
10:55 AM,53.6,24.8,33,30.16,10.0,SW,18.4,23.0,N/A,,Clear,220,2013-02-03 16:55:00
11:15 AM,57.2,23.0,27,30.15,10.0,SW,23.0,29.9,N/A,,Clear,230,2013-02-03 17:15:00
11:35 AM,57.2,21.2,25,30.14,10.0,SW,21.9,-,N/A,,Clear,230,2013-02-03 17:35:00
11:55 AM,59.0,21.2,23,30.13,10.0,SW,21.9,28.8,N/A,,Clear,220,2013-02-03 17:55:00
12:15 PM,59.0,21.2,23,30.12,10.0,SSW,19.6,27.6,N/A,,Clear,210,2013-02-03 18:15:00
12:35 PM,60.8,21.2,22,30.10,10.0,SSW,20.7,29.9,N/A,,Clear,210,2013-02-03 18:35:00
12:55 PM,62.6,19.4,19,30.08,10.0,SW,23.0,-,N/A,,Clear,220,2013-02-03 18:55:00
1:15 PM,62.6,17.6,18,30.06,10.0,SSW,25.3,29.9,N/A,,Clear,210,2013-02-03 19:15:00
1:35 PM,64.4,17.6,16,30.04,10.0,SSW,25.3,32.2,N/A,,Clear,210,2013-02-03 19:35:00
1:55 PM,64.4,17.6,16,30.02,10.0,SSW,24.2,31.1,N/A,,Clear,210,2013-02-03 19:55:00
2:15 PM,64.4,19.4,18,30.00,10.0,SSW,26.5,32.2,N/A,,Clear,200,2013-02-03 20:15:00
2:55 PM,62.6,19.4,19,29.98,10.0,SSW,29.9,39.1,N/A,,Clear,210,2013-02-03 20:55:00
3:15 PM,62.6,17.6,18,29.96,10.0,SSW,24.2,32.2,N/A,,Clear,200,2013-02-03 21:15:00
3:35 PM,62.6,17.6,18,29.95,10.0,SSW,28.8,34.5,N/A,,Clear,200,2013-02-03 21:35:00
3:55 PM,60.8,19.4,20,29.94,10.0,SSW,25.3,34.5,N/A,,Clear,200,2013-02-03 21:55:00
4:15 PM,60.8,21.2,22,29.93,10.0,SSW,25.3,34.5,N/A,,Clear,200,2013-02-03 22:15:00
4:55 PM,60.8,21.2,22,29.91,10.0,SSW,23.0,31.1,N/A,,Clear,210,2013-02-03 22:55:00
5:15 PM,59.0,23.0,25,29.90,10.0,SSW,23.0,31.1,N/A,,Clear,200,2013-02-03 23:15:00
5:55 PM,59.0,23.0,25,29.90,10.0,SSW,15.0,-,N/A,,Clear,200,2013-02-03 23:55:00
6:15 PM,57.2,23.0,27,29.89,10.0,SSW,15.0,-,N/A,,Clear,200,2013-02-04 00:15:00
6:35 PM,55.4,24.8,31,29.89,10.0,South,12.7,-,N/A,,Clear,190,2013-02-04 00:35:00
6:55 PM,55.4,24.8,31,29.89,10.0,South,12.7,-,N/A,,Clear,190,2013-02-04 00:55:00
7:35 PM,53.6,26.6,35,29.88,10.0,South,12.7,-,N/A,,Clear,190,2013-02-04 01:35:00
7:55 PM,53.6,26.6,35,29.88,10.0,South,10.4,-,N/A,,Clear,190,2013-02-04 01:55:00
8:15 PM,51.8,26.6,38,29.87,10.0,South,10.4,-,N/A,,Clear,180,2013-02-04 02:15:00
8:35 PM,51.8,26.6,38,29.86,10.0,South,12.7,-,N/A,,Scattered Clouds,190,2013-02-04 02:35:00
8:55 PM,51.8,28.4,41,29.87,10.0,South,12.7,-,N/A,,Scattered Clouds,190,2013-02-04 02:55:00
9:15 PM,51.8,28.4,41,29.85,10.0,South,12.7,-,N/A,,Scattered Clouds,190,2013-02-04 03:15:00
9:35 PM,51.8,28.4,41,29.85,10.0,South,12.7,-,N/A,,Scattered Clouds,180,2013-02-04 03:35:00
9:55 PM,50.0,30.2,47,29.85,10.0,South,11.5,-,N/A,,Scattered Clouds,190,2013-02-04 03:55:00
10:15 PM,50.0,32.0,50,29.84,10.0,South,12.7,-,N/A,,Scattered Clouds,190,2013-02-04 04:15:00
10:55 PM,51.8,32.0,47,29.82,10.0,South,16.1,-,N/A,,Overcast,190,2013-02-04 04:55:00
11:15 PM,50.0,32.0,50,29.81,10.0,South,12.7,-,N/A,,Overcast,190,2013-02-04 05:15:00
11:35 PM,50.0,32.0,50,29.81,10.0,South,8.1,-,N/A,,Scattered Clouds,170,2013-02-04 05:35:00
11:55 PM,50.0,32.0,50,29.80,10.0,SSW,11.5,-,N/A,,Clear,200,2013-02-04 05:55:00